createdAt,value
2023-04-16T00:00:16.598Z,100824.44
2023-04-16T00:02:44.798Z,100825.31
2023-04-16T00:05:13.060Z,100821.84
2023-04-16T00:07:42.408Z,100831.44
2023-04-16T00:10:10.856Z,100825.34
2023-04-16T00:12:38.929Z,100814.91
2023-04-16T00:15:07.659Z,100822.72
2023-04-16T00:17:35.888Z,100827.94
2023-04-16T00:20:04.218Z,100826.19
2023-04-16T00:22:32.240Z,100823.56
2023-04-16T00:25:01.704Z,100819.19
2023-04-16T00:27:29.799Z,100821.81
2023-04-16T00:29:57.980Z,100828.78
2023-04-16T00:32:26.185Z,100824.44
2023-04-16T00:34:54.327Z,100820.09
2023-04-16T00:37:22.588Z,100818.34
2023-04-16T00:39:51.671Z,100819.22
2023-04-16T00:42:21.047Z,100826.16
2023-04-16T00:44:49.218Z,100818.34
2023-04-16T00:47:17.639Z,100811.38
2023-04-16T00:49:45.885Z,100812.22
2023-04-16T00:52:14.163Z,100813.09
2023-04-16T00:54:42.323Z,100821.81
2023-04-16T00:57:11.570Z,100813.06
2023-04-16T00:59:41.567Z,100821.78
2023-04-16T01:02:09.895Z,100815.66
2023-04-16T01:04:38.057Z,100820.84
2023-04-16T01:07:06.139Z,100817.34
2023-04-16T01:09:34.342Z,100813.88
2023-04-16T01:12:04.449Z,100817.34
2023-04-16T01:14:36.398Z,100823.47
2023-04-16T01:17:06.061Z,100817.34
2023-04-16T01:19:36.335Z,100819.94
2023-04-16T01:22:06.192Z,100826.88
2023-04-16T01:24:36.490Z,100822.56
2023-04-16T01:27:04.671Z,100823.41
2023-04-16T01:29:32.712Z,100821.63
2023-04-16T01:32:02.172Z,100826.84
2023-04-16T01:34:35.203Z,100827.72
2023-04-16T01:37:06.392Z,100830.31
2023-04-16T01:39:34.482Z,100832.94
2023-04-16T01:42:03.387Z,100825.09
2023-04-16T01:44:31.958Z,100827.69
2023-04-16T01:47:00.246Z,100833.78
2023-04-16T01:49:28.731Z,100824.22
2023-04-16T01:51:57.029Z,100830.31
2023-04-16T01:54:26.534Z,100835.53
2023-04-16T01:56:54.635Z,100835.53
2023-04-16T01:59:23.276Z,100829.47
2023-04-16T02:01:51.449Z,100825.13
2023-04-16T02:04:19.601Z,100820.78
2023-04-16T02:06:47.864Z,100828.63
2023-04-16T02:09:16.201Z,100819.94
2023-04-16T02:11:45.713Z,100815.56
2023-04-16T02:14:13.873Z,100821.66
2023-04-16T02:16:42.094Z,100812.97
2023-04-16T02:19:18.630Z,100812.09
2023-04-16T02:21:47.185Z,100817.31
2023-04-16T02:24:15.698Z,100816.41
2023-04-16T02:26:45.752Z,100821.66
2023-04-16T02:29:17.690Z,100819.06
2023-04-16T02:31:53.572Z,100820.81
2023-04-16T02:34:22.343Z,100812.97
2023-04-16T02:36:50.508Z,100816.47
2023-04-16T02:39:18.694Z,100813.88
2023-04-16T02:41:48.105Z,100806.94
2023-04-16T02:44:16.446Z,100813.06
2023-04-16T02:46:44.566Z,100811.31
2023-04-16T02:49:12.724Z,100806.97
2023-04-16T02:51:40.803Z,100809.59
2023-04-16T02:54:08.978Z,100803.47
2023-04-16T02:56:37.081Z,100810.47
2023-04-16T02:59:06.562Z,100811.31
2023-04-16T03:01:34.931Z,100808.69
2023-04-16T03:04:03.342Z,100811.31
2023-04-16T03:06:31.606Z,100806.06
2023-04-16T03:08:59.734Z,100797.34
2023-04-16T03:11:27.916Z,100795.56
2023-04-16T03:13:56.702Z,100793.84
2023-04-16T03:16:26.187Z,100800.81
2023-04-16T03:18:54.330Z,100792.97
2023-04-16T03:21:22.515Z,100797.31
2023-04-16T03:23:50.638Z,100797.28
2023-04-16T03:26:18.679Z,100793.75
2023-04-16T03:28:47.028Z,100799.00
2023-04-16T03:31:15.096Z,100793.72
2023-04-16T03:33:44.639Z,100799.81
2023-04-16T03:36:12.798Z,100795.50
2023-04-16T03:38:41.008Z,100792.88
2023-04-16T03:41:09.208Z,100796.38
2023-04-16T03:43:38.245Z,100796.38
2023-04-16T03:46:06.686Z,100805.94
2023-04-16T03:48:35.162Z,100790.28
2023-04-16T03:51:04.916Z,100802.47
2023-04-16T03:53:35.041Z,100791.97
2023-04-16T03:56:03.198Z,100791.97
2023-04-16T03:58:31.337Z,100781.56
2023-04-16T04:00:59.443Z,100779.81
2023-04-16T04:03:27.877Z,100779.81
2023-04-16T04:05:56.866Z,100778.06
2023-04-16T04:08:30.760Z,100776.28
2023-04-16T04:10:58.999Z,100778.06
2023-04-16T04:13:27.114Z,100774.56
2023-04-16T04:15:55.730Z,100773.66
2023-04-16T04:18:24.747Z,100776.25
2023-04-16T04:20:53.164Z,100777.09
2023-04-16T04:23:25.388Z,100776.25
2023-04-16T04:25:54.859Z,100769.28
2023-04-16T04:28:23.838Z,100767.53
2023-04-16T04:30:52.108Z,100760.56
2023-04-16T04:33:20.475Z,100772.75
2023-04-16T04:35:49.361Z,100767.50
2023-04-16T04:38:20.081Z,100768.34
2023-04-16T04:40:49.121Z,100769.25
2023-04-16T04:43:20.195Z,100762.28
2023-04-16T04:45:49.424Z,100771.88
2023-04-16T04:48:18.721Z,100769.28
2023-04-16T04:50:47.657Z,100777.09
2023-04-16T04:53:15.918Z,100769.28
2023-04-16T04:55:44.433Z,100772.75
2023-04-16T04:58:12.629Z,100777.13
2023-04-16T05:00:44.082Z,100777.13
2023-04-16T05:03:13.455Z,100779.72
2023-04-16T05:05:42.159Z,100780.59
2023-04-16T05:08:10.223Z,100786.69
2023-04-16T05:10:38.368Z,100783.19
2023-04-16T05:13:06.489Z,100785.81
2023-04-16T05:15:34.553Z,100774.50
2023-04-16T05:18:04.034Z,100778.84
2023-04-16T05:20:32.181Z,100785.81
2023-04-16T05:23:00.425Z,100781.41
2023-04-16T05:25:28.494Z,100782.25
2023-04-16T05:27:56.635Z,100770.91
2023-04-16T05:30:24.768Z,100772.63
2023-04-16T05:32:52.841Z,100779.59
2023-04-16T05:35:22.418Z,100777.84
2023-04-16T05:37:50.427Z,100783.06
2023-04-16T05:40:18.642Z,100780.44
2023-04-16T05:42:47.912Z,100777.81
2023-04-16T05:45:15.991Z,100778.66
2023-04-16T05:47:44.324Z,100789.09
2023-04-16T05:50:12.688Z,100786.47
2023-04-16T05:52:42.070Z,100779.50
2023-04-16T05:55:10.969Z,100786.47
2023-04-16T05:57:39.013Z,100784.72
2023-04-16T06:00:08.596Z,100787.31
2023-04-16T06:02:42.627Z,100789.91
2023-04-16T06:05:11.194Z,100795.13
2023-04-16T06:07:39.251Z,100795.97
2023-04-16T06:10:09.428Z,100797.69
2023-04-16T06:12:37.477Z,100796.78
2023-04-16T06:15:06.474Z,100799.34
2023-04-16T06:17:34.602Z,100801.06
2023-04-16T06:20:02.761Z,100799.28
2023-04-16T06:22:31.011Z,100805.34
2023-04-16T06:24:59.114Z,100808.75
2023-04-16T06:27:28.506Z,100809.56
2023-04-16T06:29:58.234Z,100813.88
2023-04-16T06:32:26.402Z,100805.97
2023-04-16T06:34:54.683Z,100817.22
2023-04-16T06:37:22.744Z,100814.56
2023-04-16T06:39:50.915Z,100813.63
2023-04-16T06:42:19.090Z,100813.53
2023-04-16T06:44:48.958Z,100820.38
2023-04-16T06:47:17.542Z,100822.94
2023-04-16T06:49:45.660Z,100828.16
2023-04-16T06:52:13.850Z,100823.72
2023-04-16T06:54:42.069Z,100827.19
2023-04-16T06:57:10.176Z,100834.13
2023-04-16T06:59:38.319Z,100836.72
2023-04-16T07:02:08.981Z,100836.69
2023-04-16T07:04:37.345Z,100840.13
2023-04-16T07:07:05.657Z,100835.78
2023-04-16T07:09:33.830Z,100839.25
2023-04-16T07:12:01.991Z,100840.94
2023-04-16T07:14:30.126Z,100840.00
2023-04-16T07:16:58.417Z,100834.72
2023-04-16T07:19:30.649Z,100839.00
2023-04-16T07:21:58.806Z,100841.53
2023-04-16T07:24:26.948Z,100849.34
2023-04-16T07:26:55.069Z,100844.06
2023-04-16T07:29:23.089Z,100846.66
2023-04-16T07:31:51.283Z,100859.75
2023-04-16T07:34:19.374Z,100865.84
2023-04-16T07:36:48.864Z,100866.69
2023-04-16T07:39:16.979Z,100852.72
2023-04-16T07:41:45.390Z,100852.75
2023-04-16T07:44:13.391Z,100864.06
2023-04-16T07:46:46.977Z,100870.16
2023-04-16T07:49:16.040Z,100875.38
2023-04-16T07:51:44.213Z,100883.13
2023-04-16T07:54:13.640Z,100875.31
2023-04-16T07:56:41.750Z,100877.09
2023-04-16T07:59:21.985Z,100876.25
2023-04-16T08:01:53.722Z,100892.84
2023-04-16T08:04:25.766Z,100884.97
2023-04-16T08:06:55.225Z,100890.19
2023-04-16T08:09:27.548Z,100887.53
2023-04-16T08:11:55.710Z,100892.75
2023-04-16T08:14:23.775Z,100889.13
2023-04-16T08:16:52.222Z,100888.28
2023-04-16T08:19:20.549Z,100895.19
2023-04-16T08:21:48.771Z,100886.41
2023-04-16T08:24:16.958Z,100888.09
2023-04-16T08:26:46.500Z,100891.50
2023-04-16T08:29:14.529Z,100894.84
2023-04-16T08:31:43.248Z,100899.03
2023-04-16T08:34:12.520Z,100897.06
2023-04-16T08:36:41.640Z,100901.25
2023-04-16T08:39:10.323Z,100895.88
2023-04-16T08:41:41.791Z,100900.22
2023-04-16T08:44:15.721Z,100895.88
2023-04-16T08:46:45.375Z,100893.25
2023-04-16T08:49:18.088Z,100902.78
2023-04-16T08:51:52.345Z,100893.03
2023-04-16T08:54:32.315Z,100899.88
2023-04-16T08:57:01.556Z,100896.25
2023-04-16T08:59:31.450Z,100891.84
2023-04-16T09:02:00.482Z,100902.41
2023-04-16T09:04:29.590Z,100896.13
2023-04-16T09:06:59.636Z,100904.84
2023-04-16T09:09:28.620Z,100910.94
2023-04-16T09:11:57.354Z,100902.03
2023-04-16T09:14:26.546Z,100912.28
2023-04-16T09:16:57.011Z,100906.03
2023-04-16T09:19:25.227Z,100903.28
2023-04-16T09:21:53.285Z,100900.50
2023-04-16T09:24:22.830Z,100895.09
2023-04-16T09:26:52.957Z,100899.31
2023-04-16T09:29:40.121Z,100905.31
2023-04-16T09:32:11.079Z,100894.66
2023-04-16T09:34:56.100Z,100890.25
2023-04-16T09:37:24.817Z,100897.06
2023-04-16T09:39:58.119Z,100902.09
2023-04-16T09:42:28.419Z,100897.44
2023-04-16T09:44:59.729Z,100894.56
2023-04-16T09:47:42.355Z,100898.59
2023-04-16T09:50:13.157Z,100900.25
2023-04-16T09:52:44.222Z,100892.38
2023-04-16T09:55:12.742Z,100898.38
2023-04-16T09:57:40.860Z,100901.78
2023-04-16T10:00:11.366Z,100897.25
2023-04-16T10:02:43.111Z,100901.19
2023-04-16T10:05:16.784Z,100902.50
2023-04-16T10:07:44.777Z,100908.22
2023-04-16T10:10:13.088Z,100900.19
2023-04-16T10:12:42.038Z,100912.13
2023-04-16T10:15:10.753Z,100910.16
2023-04-16T10:17:39.879Z,100900.88
2023-04-16T10:20:10.433Z,100893.34
2023-04-16T10:22:39.352Z,100897.53
2023-04-16T10:25:08.845Z,100906.19
2023-04-16T10:27:38.448Z,100904.38
2023-04-16T10:30:08.704Z,100900.47
2023-04-16T10:32:38.172Z,100904.94
2023-04-16T10:35:07.338Z,100906.25
2023-04-16T10:37:38.821Z,100907.47
2023-04-16T10:40:24.601Z,100912.78
2023-04-16T10:42:57.302Z,100909.97
2023-04-16T10:45:31.778Z,100909.63
2023-04-16T10:48:00.248Z,100911.03
2023-04-16T10:50:36.441Z,100904.53
2023-04-16T10:53:25.938Z,100912.47
2023-04-16T10:56:12.770Z,100906.31
2023-04-16T10:58:41.054Z,100916.63
2023-04-16T11:01:13.391Z,100916.75
2023-04-16T11:03:44.211Z,100918.31
2023-04-16T11:06:14.604Z,100913.00
2023-04-16T11:08:53.760Z,100917.25
2023-04-16T11:11:23.962Z,100916.34
2023-04-16T11:13:57.073Z,100915.31
2023-04-16T11:16:27.459Z,100922.84
2023-04-16T11:18:57.258Z,100922.72
2023-04-16T11:21:26.757Z,100912.81
2023-04-16T11:23:56.822Z,100912.72
2023-04-16T11:26:26.571Z,100913.69
2023-04-16T11:28:56.677Z,100911.16
2023-04-16T11:31:27.359Z,100917.91
2023-04-16T11:33:57.887Z,100909.84
2023-04-16T11:36:27.734Z,100916.94
2023-04-16T11:39:04.721Z,100917.91
2023-04-16T11:41:32.965Z,100919.44
2023-04-16T11:44:01.402Z,100912.97
2023-04-16T11:46:39.860Z,100921.50
2023-04-16T11:49:08.247Z,100918.75
2023-04-16T11:51:41.312Z,100925.16
2023-04-16T11:54:12.234Z,100920.44
2023-04-16T11:56:46.791Z,100920.50
2023-04-16T11:59:17.156Z,100907.63
2023-04-16T12:01:48.782Z,100913.28
2023-04-16T12:04:18.802Z,100913.03
2023-04-16T12:07:07.962Z,100908.72
2023-04-16T12:09:40.171Z,100906.63
2023-04-16T12:12:27.427Z,100908.25
2023-04-16T12:14:56.919Z,100920.75
2023-04-16T12:17:25.307Z,100920.00
2023-04-16T12:19:57.357Z,100923.00
2023-04-16T12:22:30.110Z,100920.59
2023-04-16T12:25:02.714Z,100924.22
2023-04-16T12:27:47.019Z,100925.94
2023-04-16T12:30:16.303Z,100928.63
2023-04-16T12:32:46.197Z,100929.47
2023-04-16T12:35:14.898Z,100932.06
2023-04-16T12:37:42.985Z,100929.19
2023-04-16T12:40:12.850Z,100929.06
2023-04-16T12:42:40.938Z,100929.75
2023-04-16T12:45:09.386Z,100929.56
2023-04-16T12:47:37.522Z,100927.81
2023-04-16T12:50:06.172Z,100932.94
2023-04-16T12:52:35.562Z,100920.75
2023-04-16T12:55:04.549Z,100928.00
2023-04-16T12:57:33.948Z,100925.28
2023-04-16T13:00:02.067Z,100928.13
2023-04-16T13:02:30.534Z,100932.53
2023-04-16T13:04:59.209Z,100928.41
2023-04-16T13:07:28.279Z,100942.38
2023-04-16T13:09:56.521Z,100933.22
2023-04-16T13:12:24.619Z,100927.38
2023-04-16T13:14:54.091Z,100930.75
2023-04-16T13:17:22.308Z,100926.19
2023-04-16T13:19:50.579Z,100923.22
2023-04-16T13:22:18.789Z,100916.81
2023-04-16T13:24:47.175Z,100915.72
2023-04-16T13:27:16.148Z,100913.59
2023-04-16T13:29:44.692Z,100912.34
2023-04-16T13:32:14.854Z,100918.53
2023-04-16T13:34:43.504Z,100912.28
2023-04-16T13:37:11.567Z,100927.25
2023-04-16T13:39:39.807Z,100914.09
2023-04-16T13:42:07.988Z,100916.88
2023-04-16T13:44:36.154Z,100925.75
2023-04-16T13:47:04.330Z,100916.19
2023-04-16T13:49:36.125Z,100924.16
2023-04-16T13:52:04.586Z,100919.81
2023-04-16T13:54:32.937Z,100927.03
2023-04-16T13:57:01.215Z,100923.53
2023-04-16T13:59:29.416Z,100929.09
2023-04-16T14:01:57.599Z,100932.00
2023-04-16T14:04:25.988Z,100939.22
2023-04-16T14:06:55.717Z,100936.50
2023-04-16T14:09:24.470Z,100936.59
2023-04-16T14:11:52.602Z,100933.47
2023-04-16T14:14:20.753Z,100934.47
2023-04-16T14:16:48.966Z,100933.72
2023-04-16T14:19:17.084Z,100927.44
2023-04-16T14:21:45.282Z,100928.97
2023-04-16T14:24:14.725Z,100922.75
2023-04-16T14:26:44.242Z,100922.59
2023-04-16T14:29:12.447Z,100919.72
2023-04-16T14:31:40.643Z,100914.28
2023-04-16T14:34:08.827Z,100920.38
2023-04-16T14:36:37.298Z,100924.31
2023-04-16T14:39:05.734Z,100925.84
2023-04-16T14:41:35.169Z,100928.59
2023-04-16T14:44:04.415Z,100922.88
2023-04-16T14:46:33.733Z,100929.38
2023-04-16T14:49:01.935Z,100924.25
2023-04-16T14:51:30.136Z,100925.91
2023-04-16T14:53:58.297Z,100925.81
2023-04-16T14:56:26.298Z,100923.09
2023-04-16T14:58:55.736Z,100920.34
2023-04-16T15:01:24.030Z,100925.63
2023-04-16T15:03:52.426Z,100909.72
2023-04-16T15:06:20.740Z,100913.97
2023-04-16T15:08:48.944Z,100922.47
2023-04-16T15:11:17.081Z,100926.72
2023-04-16T15:13:45.213Z,100918.91
2023-04-16T15:16:14.640Z,100920.03
2023-04-16T15:18:42.894Z,100912.28
2023-04-16T15:21:12.534Z,100905.16
2023-04-16T15:23:41.105Z,100907.59
2023-04-16T15:26:09.270Z,100905.53
2023-04-16T15:28:37.370Z,100903.53
2023-04-16T15:31:05.439Z,100890.03
2023-04-16T15:33:34.936Z,100898.59
2023-04-16T15:36:03.862Z,100894.97
2023-04-16T15:38:32.051Z,100897.72
2023-04-16T15:41:00.999Z,100895.06
2023-04-16T15:43:29.972Z,100886.25
2023-04-16T15:45:58.238Z,100888.03
2023-04-16T15:48:26.414Z,100888.78
2023-04-16T15:50:56.084Z,100887.06
2023-04-16T15:53:24.369Z,100890.69
2023-04-16T15:55:53.800Z,100888.09
2023-04-16T15:58:23.066Z,100884.75
2023-04-16T16:00:51.476Z,100887.41
2023-04-16T16:03:20.302Z,100889.13
2023-04-16T16:05:49.255Z,100880.31
2023-04-16T16:08:18.910Z,100879.41
2023-04-16T16:10:47.093Z,100884.69
2023-04-16T16:13:18.201Z,100877.72
2023-04-16T16:15:46.413Z,100878.69
2023-04-16T16:18:14.666Z,100880.50
2023-04-16T16:20:42.911Z,100882.28
2023-04-16T16:23:11.481Z,100878.84
2023-04-16T16:25:42.181Z,100873.56
2023-04-16T16:28:11.183Z,100871.84
2023-04-16T16:30:40.783Z,100879.88
2023-04-16T16:33:08.911Z,100880.91
2023-04-16T16:35:36.999Z,100877.47
2023-04-16T16:38:06.289Z,100865.09
2023-04-16T16:40:34.358Z,100868.56
2023-04-16T16:43:03.946Z,100874.72
2023-04-16T16:45:32.427Z,100866.81
2023-04-16T16:48:00.673Z,100875.63
2023-04-16T16:50:28.736Z,100865.88
2023-04-16T16:52:56.817Z,100871.16
2023-04-16T16:55:24.947Z,100871.16
2023-04-16T16:57:53.231Z,100875.56
2023-04-16T17:00:23.026Z,100861.53
2023-04-16T17:02:52.083Z,100868.56
2023-04-16T17:05:20.389Z,100867.72
2023-04-16T17:07:48.489Z,100858.91
2023-04-16T17:10:20.442Z,100863.19
2023-04-16T17:12:49.239Z,100862.34
2023-04-16T17:15:21.786Z,100870.25
2023-04-16T17:17:51.704Z,100863.38
2023-04-16T17:20:20.006Z,100874.88
2023-04-16T17:22:48.236Z,100873.16
2023-04-16T17:25:16.420Z,100871.44
2023-04-16T17:27:44.582Z,100875.09
2023-04-16T17:30:13.030Z,100879.59
2023-04-16T17:32:41.276Z,100877.19
2023-04-16T17:35:11.254Z,100884.22
2023-04-16T17:37:39.453Z,100878.09
2023-04-16T17:40:10.153Z,100878.19
2023-04-16T17:42:38.399Z,100885.19
2023-04-16T17:45:07.139Z,100888.72
2023-04-16T17:47:36.338Z,100893.13
2023-04-16T17:50:04.693Z,100887.00
2023-04-16T17:52:34.240Z,100886.22
2023-04-16T17:55:03.582Z,100889.75
2023-04-16T17:57:32.455Z,100885.41
2023-04-16T18:00:00.796Z,100894.16
2023-04-16T18:02:29.202Z,100885.41
2023-04-16T18:04:57.566Z,100885.44
2023-04-16T18:07:26.490Z,100884.69
2023-04-16T18:09:55.929Z,100882.16
2023-04-16T18:12:24.143Z,100897.09
2023-04-16T18:14:52.270Z,100899.81
2023-04-16T18:17:21.938Z,100896.38
2023-04-16T18:19:50.130Z,100907.03
2023-04-16T18:22:18.268Z,100901.94
2023-04-16T18:27:16.636Z,100902.06
2023-04-16T18:29:45.341Z,100903.00
2023-04-16T18:32:13.564Z,100891.69
2023-04-16T18:34:41.767Z,100896.16
2023-04-16T18:37:09.928Z,100895.38
2023-04-16T18:39:39.735Z,100902.56
2023-04-16T18:42:07.923Z,100896.56
2023-04-16T18:44:37.360Z,100894.91
2023-04-16T18:47:05.533Z,100887.97
2023-04-16T18:49:33.585Z,100891.50
2023-04-16T18:52:01.917Z,100893.31
2023-04-16T18:54:29.949Z,100893.34
2023-04-16T18:56:59.734Z,100891.63
2023-04-16T18:59:30.375Z,100893.41
2023-04-16T19:02:00.244Z,100899.56
2023-04-16T19:04:29.270Z,100896.13
2023-04-16T19:06:57.416Z,100898.75
2023-04-16T19:09:27.425Z,100903.16
2023-04-16T19:11:56.071Z,100898.84
2023-04-16T19:14:24.103Z,100901.50
2023-04-16T19:16:52.338Z,100897.16
2023-04-16T19:19:21.840Z,100897.16
2023-04-16T19:21:50.402Z,100898.00
2023-04-16T19:24:19.837Z,100896.25
2023-04-16T19:26:48.053Z,100902.38
2023-04-16T19:29:17.964Z,100892.72
2023-04-16T19:31:47.453Z,100897.97
2023-04-16T19:34:16.795Z,100897.97
2023-04-16T19:36:46.586Z,100905.91
2023-04-16T19:39:14.724Z,100904.13
2023-04-16T19:41:42.830Z,100907.66
2023-04-16T19:44:11.701Z,100900.66
2023-04-16T19:46:39.795Z,100909.41
2023-04-16T19:49:08.073Z,100908.53
2023-04-16T19:51:36.231Z,100912.06
2023-04-16T19:54:05.862Z,100906.81
2023-04-16T19:56:33.948Z,100913.88
2023-04-16T19:59:02.627Z,100914.78
2023-04-16T20:01:31.902Z,100927.06
2023-04-16T20:04:00.113Z,100925.31
2023-04-16T20:06:28.312Z,100926.16
2023-04-16T20:08:57.870Z,100930.56
2023-04-16T20:11:27.410Z,100940.22
2023-04-16T20:13:56.274Z,100926.25
2023-04-16T20:16:24.718Z,100927.19
2023-04-16T20:18:54.408Z,100926.38
2023-04-16T20:21:22.817Z,100929.91
2023-04-16T20:23:53.323Z,100926.47
2023-04-16T20:26:24.045Z,100919.47
2023-04-16T20:28:53.541Z,100927.38
2023-04-16T20:31:21.949Z,100926.50
2023-04-16T20:33:50.176Z,100924.78
2023-04-16T20:36:18.312Z,100924.78
2023-04-16T20:38:46.566Z,100921.25
2023-04-16T20:41:20.341Z,100920.44
2023-04-16T20:43:50.229Z,100920.44
2023-04-16T20:46:23.962Z,100923.06
2023-04-16T20:48:52.550Z,100918.66
2023-04-16T20:51:21.540Z,100917.78
2023-04-16T20:53:52.123Z,100922.19
2023-04-16T20:56:20.616Z,100923.91
2023-04-16T20:58:48.675Z,100925.59
2023-04-16T21:01:18.349Z,100922.97
2023-04-16T21:03:48.151Z,100916.00
2023-04-16T21:06:17.757Z,100923.06
2023-04-16T21:08:45.910Z,100916.97
2023-04-16T21:11:14.108Z,100912.63
2023-04-16T21:13:42.204Z,100917.09
2023-04-16T21:16:12.491Z,100915.38
2023-04-16T21:18:41.008Z,100916.31
2023-04-16T21:21:10.470Z,100916.34
2023-04-16T21:23:38.576Z,100913.75
2023-04-16T21:26:06.829Z,100913.81
2023-04-16T21:28:34.939Z,100906.84
2023-04-16T21:31:03.115Z,100916.50
2023-04-16T21:33:31.529Z,100910.41
2023-04-16T21:35:59.691Z,100912.19
2023-04-16T21:38:29.119Z,100914.81
2023-04-16T21:40:57.327Z,100915.72
2023-04-16T21:43:26.679Z,100914.91
2023-04-16T21:45:54.980Z,100915.75
2023-04-16T21:48:23.455Z,100909.63
2023-04-16T21:50:58.011Z,100912.28
2023-04-16T21:53:28.064Z,100916.66
2023-04-16T21:55:57.480Z,100913.13
2023-04-16T21:58:25.771Z,100913.13
2023-04-16T22:00:54.201Z,100925.44
2023-04-16T22:03:26.661Z,100914.97
2023-04-16T22:06:00.731Z,100921.09
2023-04-16T22:08:29.578Z,100923.72
2023-04-16T22:11:00.166Z,100924.63
2023-04-16T22:13:30.039Z,100923.78
2023-04-16T22:15:58.254Z,100918.59
2023-04-16T22:18:26.539Z,100929.09
2023-04-16T22:20:55.362Z,100929.09
2023-04-16T22:23:23.929Z,100920.34
2023-04-16T22:25:52.220Z,100919.47
2023-04-16T22:28:21.714Z,100912.53
2023-04-16T22:30:49.882Z,100918.69
2023-04-16T22:33:18.357Z,100922.19
2023-04-16T22:35:46.685Z,100916.97
2023-04-16T22:38:14.771Z,100927.47
2023-04-16T22:40:42.867Z,100917.00
2023-04-16T22:43:11.323Z,100910.88
2023-04-16T22:45:41.109Z,100911.78
2023-04-16T22:48:09.291Z,100906.53
2023-04-16T22:50:37.380Z,100907.41
2023-04-16T22:53:05.640Z,100909.16
2023-04-16T22:55:33.724Z,100909.19
2023-04-16T22:58:01.825Z,100907.47
2023-04-16T23:00:29.896Z,100906.63
2023-04-16T23:02:59.488Z,100911.91
2023-04-16T23:05:27.839Z,100911.94
2023-04-16T23:07:56.012Z,100914.59
2023-04-16T23:10:24.025Z,100918.97
2023-04-16T23:12:52.108Z,100924.28
2023-04-16T23:15:20.181Z,100920.78
2023-04-16T23:17:48.310Z,100915.53
2023-04-16T23:20:17.777Z,100920.78
2023-04-16T23:22:46.591Z,100925.16
2023-04-16T23:25:14.708Z,100924.28
2023-04-16T23:27:42.826Z,100931.28
2023-04-16T23:30:11.468Z,100917.28
2023-04-16T23:32:39.762Z,100924.28
2023-04-16T23:35:08.730Z,100926.03
2023-04-16T23:37:38.161Z,100926.03
2023-04-16T23:40:08.216Z,100926.03
2023-04-16T23:42:36.428Z,100920.81
2023-04-16T23:45:04.729Z,100928.69
2023-04-16T23:47:32.929Z,100932.22
2023-04-16T23:50:01.089Z,100929.59
2023-04-16T23:52:29.238Z,100919.09
2023-04-16T23:54:58.665Z,100925.22
2023-04-16T23:57:26.716Z,100930.47
2023-04-16T23:59:54.790Z,100919.97
